createdAt,value
2018-09-17T00:02:07.569Z,1.90
2018-09-17T00:04:36.376Z,2.02
2018-09-17T00:07:05.176Z,2.00
2018-09-17T00:09:34.036Z,2.00
2018-09-17T00:12:02.868Z,2.00
2018-09-17T00:14:31.728Z,1.98
2018-09-17T00:17:00.586Z,2.20
2018-09-17T00:19:29.376Z,1.90
2018-09-17T00:21:58.069Z,2.00
2018-09-17T00:24:26.797Z,1.92
2018-09-17T00:26:55.505Z,1.80
2018-09-17T00:29:24.219Z,2.00
2018-09-17T00:31:52.985Z,2.20
2018-09-17T00:34:21.693Z,2.20
2018-09-17T00:36:50.477Z,1.97
2018-09-17T00:39:19.219Z,2.10
2018-09-17T00:41:47.958Z,2.00
2018-09-17T00:44:16.685Z,1.90
2018-09-17T00:46:45.460Z,2.10
2018-09-17T00:49:14.194Z,2.00
2018-09-17T00:51:42.936Z,2.10
2018-09-17T00:54:11.616Z,2.20
2018-09-17T00:56:40.361Z,2.43
2018-09-17T00:59:09.105Z,2.40
2018-09-17T01:01:38.008Z,2.05
2018-09-17T01:04:06.831Z,2.00
2018-09-17T01:06:35.680Z,2.10
2018-09-17T01:09:05.335Z,1.90
2018-09-17T01:11:34.137Z,2.20
2018-09-17T01:14:02.893Z,1.87
2018-09-17T01:16:31.733Z,2.17
2018-09-17T01:19:00.636Z,2.10
2018-09-17T01:21:29.521Z,2.17
2018-09-17T01:23:58.303Z,2.40
2018-09-17T01:26:27.028Z,2.20
2018-09-17T01:28:55.762Z,2.05
2018-09-17T01:31:24.473Z,2.25
2018-09-17T01:33:53.184Z,2.30
2018-09-17T01:36:21.865Z,2.10
2018-09-17T01:38:50.577Z,2.10
2018-09-17T01:41:19.357Z,2.15
2018-09-17T01:43:48.149Z,2.45
2018-09-17T01:46:16.870Z,2.40
2018-09-17T01:48:45.609Z,2.40
2018-09-17T01:51:14.307Z,2.20
2018-09-17T01:53:43.023Z,1.95
2018-09-17T01:56:11.775Z,2.40
2018-09-17T01:58:40.533Z,2.30
2018-09-17T02:01:09.340Z,2.17
2018-09-17T02:03:38.068Z,2.30
2018-09-17T02:06:06.865Z,2.17
2018-09-17T02:08:35.742Z,2.20
2018-09-17T02:11:04.551Z,2.42
2018-09-17T02:13:33.613Z,2.27
2018-09-17T02:16:02.528Z,2.25
2018-09-17T02:18:31.400Z,2.10
2018-09-17T02:21:00.184Z,2.33
2018-09-17T02:23:29.000Z,2.50
2018-09-17T02:25:57.718Z,2.42
2018-09-17T02:28:26.680Z,2.67
2018-09-17T02:30:55.407Z,2.27
2018-09-17T02:33:24.333Z,2.25
2018-09-17T02:35:53.041Z,2.52
2018-09-17T02:38:21.716Z,2.20
2018-09-17T02:40:50.460Z,2.10
2018-09-17T02:43:19.150Z,2.70
2018-09-17T02:45:47.876Z,2.30
2018-09-17T02:48:16.595Z,2.67
2018-09-17T02:50:45.359Z,2.52
2018-09-17T02:53:14.105Z,2.50
2018-09-17T02:55:42.877Z,2.70
2018-09-17T02:58:11.612Z,2.52
2018-09-17T03:00:40.392Z,2.45
2018-09-17T03:03:09.099Z,2.55
2018-09-17T03:05:37.869Z,2.30
2018-09-17T03:08:06.693Z,2.33
2018-09-17T03:10:35.509Z,2.50
2018-09-17T03:13:04.338Z,2.42
2018-09-17T03:15:44.065Z,2.60
2018-09-17T03:18:12.769Z,2.50
2018-09-17T03:20:41.526Z,2.40
2018-09-17T03:23:10.232Z,2.60
2018-09-17T03:25:38.957Z,2.60
2018-09-17T03:28:07.669Z,2.33
2018-09-17T03:30:36.534Z,2.40
2018-09-17T03:33:05.408Z,2.70
2018-09-17T03:35:34.362Z,2.70
2018-09-17T03:38:18.372Z,2.53
2018-09-17T03:40:47.125Z,2.60
2018-09-17T03:43:15.820Z,2.70
2018-09-17T03:45:44.520Z,2.47
2018-09-17T03:48:13.367Z,2.55
2018-09-17T03:50:42.080Z,2.50
2018-09-17T03:53:10.884Z,2.73
2018-09-17T03:55:39.572Z,3.00
2018-09-17T03:58:08.373Z,3.02
2018-09-17T04:00:37.272Z,2.90
2018-09-17T04:03:06.156Z,3.08
2018-09-17T04:05:35.090Z,2.47
2018-09-17T04:08:03.918Z,2.80
2018-09-17T04:10:32.773Z,2.62
2018-09-17T04:13:01.661Z,2.67
2018-09-17T04:15:30.485Z,2.90
2018-09-17T04:17:59.477Z,2.65
2018-09-17T04:20:28.240Z,2.47
2018-09-17T04:22:57.546Z,2.70
2018-09-17T04:25:26.424Z,2.75
2018-09-17T04:27:55.173Z,2.77
2018-09-17T04:30:23.968Z,3.05
2018-09-17T04:32:53.365Z,2.70
2018-09-17T04:35:22.060Z,2.90
2018-09-17T04:37:50.809Z,2.90
2018-09-17T04:40:19.497Z,2.90
2018-09-17T04:42:48.221Z,2.92
2018-09-17T04:45:16.963Z,2.75
2018-09-17T04:47:45.692Z,3.02
2018-09-17T04:50:14.400Z,3.10
2018-09-17T04:52:43.168Z,2.90
2018-09-17T04:55:11.925Z,2.55
2018-09-17T04:57:40.653Z,2.70
2018-09-17T05:00:09.424Z,2.90
2018-09-17T05:02:38.180Z,2.90
2018-09-17T05:05:07.000Z,2.90
2018-09-17T05:07:35.803Z,3.00
2018-09-17T05:10:04.807Z,2.62
2018-09-17T05:12:33.625Z,2.95
2018-09-17T05:15:02.701Z,2.58
2018-09-17T05:17:31.716Z,3.00
2018-09-17T05:20:00.654Z,3.23
2018-09-17T05:22:29.520Z,3.17
2018-09-17T05:24:58.334Z,3.00
2018-09-17T05:27:27.063Z,2.75
2018-09-17T05:29:55.799Z,3.10
2018-09-17T05:32:24.557Z,3.00
2018-09-17T05:34:53.471Z,3.08
2018-09-17T05:37:22.174Z,2.80
2018-09-17T05:39:50.916Z,2.90
2018-09-17T05:42:19.706Z,2.90
2018-09-17T05:44:48.477Z,3.08
2018-09-17T05:47:17.223Z,2.92
2018-09-17T05:49:45.937Z,3.10
2018-09-17T05:52:14.639Z,2.60
2018-09-17T05:54:43.364Z,3.03
2018-09-17T05:57:12.105Z,3.05
2018-09-17T05:59:40.876Z,2.95
2018-09-17T06:02:09.616Z,2.95
2018-09-17T06:04:38.344Z,3.25
2018-09-17T06:07:07.235Z,3.27
2018-09-17T06:09:36.055Z,3.02
2018-09-17T06:12:04.862Z,3.25
2018-09-17T06:14:33.637Z,3.20
2018-09-17T06:17:02.500Z,3.23
2018-09-17T06:19:31.406Z,2.98
2018-09-17T06:22:00.301Z,3.27
2018-09-17T06:24:29.079Z,3.77
2018-09-17T06:26:57.785Z,2.98
2018-09-17T06:29:26.463Z,3.60
2018-09-17T06:31:55.172Z,3.30
2018-09-17T06:34:23.888Z,3.60
2018-09-17T06:36:52.620Z,3.25
2018-09-17T06:39:21.337Z,3.12
2018-09-17T06:41:50.100Z,3.05
2018-09-17T06:44:18.896Z,3.27
2018-09-17T06:46:47.652Z,3.27
2018-09-17T06:49:16.400Z,3.70
2018-09-17T06:51:45.105Z,3.50
2018-09-17T06:54:13.856Z,3.58
2018-09-17T06:56:42.540Z,3.33
2018-09-17T06:59:11.304Z,3.70
2018-09-17T07:01:40.034Z,4.17
2018-09-17T07:04:08.742Z,3.50
2018-09-17T07:06:37.437Z,3.70
2018-09-17T07:09:08.696Z,3.47
2018-09-17T07:11:37.383Z,3.55
2018-09-17T07:14:06.130Z,3.67
2018-09-17T07:16:34.923Z,2.90
2018-09-17T07:19:03.789Z,3.33
2018-09-17T07:21:32.975Z,3.40
2018-09-17T07:24:01.811Z,3.10
2018-09-17T07:26:30.651Z,3.30
2018-09-17T07:28:59.993Z,2.77
2018-09-17T07:31:28.721Z,3.50
2018-09-17T07:33:57.573Z,3.55
2018-09-17T07:36:26.286Z,3.35
2018-09-17T07:38:55.040Z,3.50
2018-09-17T07:41:23.760Z,3.02
2018-09-17T07:43:52.476Z,3.13
2018-09-17T07:46:21.220Z,3.45
2018-09-17T07:48:50.033Z,4.10
2018-09-17T07:51:18.809Z,3.58
2018-09-17T07:53:47.550Z,3.33
2018-09-17T07:56:16.988Z,3.93
2018-09-17T07:58:45.728Z,3.77
2018-09-17T08:01:14.484Z,4.08
2018-09-17T08:03:43.192Z,3.50
2018-09-17T08:06:11.929Z,2.60
2018-09-17T08:08:40.593Z,3.40
2018-09-17T08:11:09.307Z,3.83
2018-09-17T08:13:38.001Z,4.28
2018-09-17T08:16:06.768Z,4.07
2018-09-17T08:18:35.499Z,3.50
2018-09-17T08:21:04.293Z,3.62
2018-09-17T08:23:33.078Z,3.92
2018-09-17T08:26:02.053Z,4.58
2018-09-17T08:28:31.602Z,3.30
2018-09-17T08:31:00.543Z,3.12
2018-09-17T08:33:29.457Z,3.30
2018-09-17T08:35:58.245Z,3.60
2018-09-17T08:38:26.957Z,3.87
2018-09-17T08:40:55.888Z,3.80
2018-09-17T08:43:24.858Z,3.60
2018-09-17T08:45:53.744Z,3.08
2018-09-17T08:48:22.510Z,3.08
2018-09-17T08:50:51.301Z,3.27
2018-09-17T08:53:20.053Z,3.58
2018-09-17T08:57:59.471Z,3.70
2018-09-17T09:01:00.578Z,2.90
2018-09-17T09:03:34.735Z,3.10
2018-09-17T09:06:08.910Z,3.22
2018-09-17T09:08:37.679Z,3.90
2018-09-17T09:11:11.558Z,3.65
2018-09-17T09:13:45.321Z,3.65
2018-09-17T09:16:14.069Z,3.60
2018-09-17T09:18:42.744Z,3.72
2018-09-17T09:21:11.532Z,4.00
2018-09-17T09:23:40.274Z,3.47
2018-09-17T09:26:09.056Z,3.50
2018-09-17T09:28:37.788Z,3.40
2018-09-17T09:31:06.660Z,3.47
2018-09-17T09:33:35.376Z,3.50
2018-09-17T09:36:04.184Z,3.40
2018-09-17T09:38:32.880Z,3.30
2018-09-17T09:41:01.556Z,3.00
2018-09-17T09:43:30.269Z,3.37
2018-09-17T09:45:59.017Z,3.10
2018-09-17T09:48:27.755Z,2.80
2018-09-17T09:50:56.457Z,3.33
2018-09-17T09:53:25.240Z,2.90
2018-09-17T09:55:53.963Z,3.05
2018-09-17T09:58:22.719Z,3.12
2018-09-17T10:00:56.753Z,2.75
2018-09-17T10:03:34.535Z,3.02
2018-09-17T10:06:03.732Z,3.00
2018-09-17T10:08:36.499Z,2.95
2018-09-17T10:11:11.094Z,2.70
2018-09-17T10:13:45.100Z,3.20
2018-09-17T10:16:16.404Z,3.08
2018-09-17T10:18:50.332Z,3.30
2018-09-17T10:21:19.077Z,2.67
2018-09-17T10:23:47.933Z,2.52
2018-09-17T10:26:16.652Z,2.80
2018-09-17T10:28:45.402Z,2.83
2018-09-17T10:31:14.322Z,2.80
2018-09-17T10:33:43.164Z,3.07
2018-09-17T10:36:12.025Z,2.47
2018-09-17T10:38:40.762Z,2.70
2018-09-17T10:41:09.500Z,2.55
2018-09-17T10:43:38.248Z,2.60
2018-09-17T10:46:07.104Z,2.98
2018-09-17T10:48:35.870Z,2.47
2018-09-17T10:51:04.604Z,2.47
2018-09-17T10:53:33.472Z,2.40
2018-09-17T10:56:02.381Z,2.20
2018-09-17T10:58:31.273Z,2.35
2018-09-17T11:01:00.044Z,2.30
2018-09-17T11:03:28.808Z,2.33
2018-09-17T11:05:57.688Z,2.23
2018-09-17T11:08:26.588Z,2.10
2018-09-17T11:10:55.461Z,2.10
2018-09-17T11:13:24.298Z,2.10
2018-09-17T11:15:53.088Z,1.95
2018-09-17T11:18:21.844Z,2.10
2018-09-17T11:20:50.574Z,2.00
2018-09-17T11:23:19.289Z,2.15
2018-09-17T11:25:48.033Z,1.80
2018-09-17T11:28:16.767Z,1.80
2018-09-17T11:30:45.508Z,1.90
2018-09-17T11:33:14.256Z,1.82
2018-09-17T11:35:43.038Z,2.00
2018-09-17T11:38:11.740Z,1.80
2018-09-17T11:40:40.475Z,2.00
2018-09-17T11:43:09.200Z,2.05
2018-09-17T11:45:37.966Z,1.90
2018-09-17T11:48:06.917Z,2.30
2018-09-17T11:50:35.749Z,2.00
2018-09-17T11:53:04.588Z,1.98
2018-09-17T11:55:33.471Z,2.03
2018-09-17T11:58:02.178Z,1.80
2018-09-17T12:00:36.271Z,1.85
2018-09-17T12:03:10.202Z,1.95
2018-09-17T12:05:44.112Z,1.98
2018-09-17T12:08:14.983Z,2.20
2018-09-17T12:10:43.706Z,2.10
2018-09-17T12:13:12.538Z,1.80
2018-09-17T12:15:42.373Z,1.90
2018-09-17T12:18:12.314Z,2.00
2018-09-17T12:20:41.187Z,1.90
2018-09-17T12:23:10.531Z,1.85
2018-09-17T12:25:39.385Z,1.82
2018-09-17T12:28:08.430Z,1.67
2018-09-17T12:30:37.356Z,1.60
2018-09-17T12:33:06.320Z,1.70
2018-09-17T12:35:35.159Z,1.50
2018-09-17T12:38:03.893Z,1.77
2018-09-17T12:40:32.658Z,1.60
2018-09-17T12:43:01.547Z,1.60
2018-09-17T12:45:30.359Z,1.40
2018-09-17T12:47:59.272Z,1.50
2018-09-17T12:50:28.230Z,1.45
2018-09-17T12:52:57.170Z,1.50
2018-09-17T12:55:26.006Z,1.30
2018-09-17T12:57:54.826Z,1.40
2018-09-17T13:00:23.614Z,1.50
2018-09-17T13:02:52.372Z,1.40
2018-09-17T13:05:21.106Z,1.55
2018-09-17T13:07:49.922Z,1.50
2018-09-17T13:10:18.673Z,1.67
2018-09-17T13:12:47.526Z,1.50
2018-09-17T13:15:16.326Z,1.62
2018-09-17T13:17:45.113Z,1.55
2018-09-17T13:20:13.810Z,1.63
2018-09-17T13:22:42.495Z,1.30
2018-09-17T13:25:11.251Z,1.35
2018-09-17T13:27:40.018Z,1.40
2018-09-17T13:30:08.793Z,1.52
2018-09-17T13:32:37.522Z,1.50
2018-09-17T13:35:06.626Z,1.70
2018-09-17T13:37:35.341Z,1.52
2018-09-17T13:40:04.107Z,1.50
2018-09-17T13:42:32.922Z,1.50
2018-09-17T13:45:01.604Z,1.50
2018-09-17T13:47:30.296Z,1.60
2018-09-17T13:49:59.050Z,1.50
2018-09-17T13:52:27.769Z,1.32
2018-09-17T13:54:56.535Z,1.42
2018-09-17T13:57:25.249Z,1.90
2018-09-17T13:59:54.075Z,1.50
2018-09-17T14:02:22.773Z,1.42
2018-09-17T14:04:51.525Z,1.50
2018-09-17T14:07:20.244Z,1.50
2018-09-17T14:09:49.011Z,1.47
2018-09-17T14:12:17.765Z,1.20
2018-09-17T14:14:46.498Z,1.60
2018-09-17T14:17:15.236Z,1.60
2018-09-17T14:19:43.994Z,1.67
2018-09-17T14:22:12.720Z,1.50
2018-09-17T14:24:41.480Z,1.50
2018-09-17T14:27:10.274Z,1.42
2018-09-17T14:29:39.039Z,1.80
2018-09-17T14:32:12.980Z,1.40
2018-09-17T14:34:41.704Z,1.50
2018-09-17T14:37:10.469Z,1.60
2018-09-17T14:39:39.215Z,1.57
2018-09-17T14:42:07.979Z,1.40
2018-09-17T14:44:36.680Z,1.40
2018-09-17T14:47:05.420Z,1.60
2018-09-17T14:49:34.141Z,1.45
2018-09-17T14:52:02.946Z,1.50
2018-09-17T14:54:31.758Z,1.60
2018-09-17T14:57:00.487Z,1.40
2018-09-17T14:59:29.221Z,1.60
2018-09-17T15:01:58.123Z,1.55
2018-09-17T15:04:26.852Z,1.70
2018-09-17T15:06:55.674Z,1.50
2018-09-17T15:09:24.442Z,1.55
2018-09-17T15:11:53.238Z,1.57
2018-09-17T15:14:22.075Z,1.73
2018-09-17T15:16:50.796Z,1.40
2018-09-17T15:19:19.501Z,1.40
2018-09-17T15:21:48.296Z,1.42
2018-09-17T15:24:17.011Z,1.55
2018-09-17T15:26:45.772Z,1.65
2018-09-17T15:29:14.513Z,1.62
2018-09-17T15:31:43.276Z,1.42
2018-09-17T15:34:11.997Z,1.50
2018-09-17T15:36:40.758Z,1.60
2018-09-17T15:39:11.096Z,1.65
2018-09-17T15:41:39.987Z,1.82
2018-09-17T15:44:09.652Z,1.90
2018-09-17T15:46:38.389Z,1.80
2018-09-17T15:49:07.382Z,1.60
2018-09-17T15:51:36.075Z,1.70
2018-09-17T15:54:04.806Z,1.60
2018-09-17T15:56:33.489Z,1.60
2018-09-17T15:59:02.225Z,1.60
2018-09-17T16:01:30.970Z,1.47
2018-09-17T16:03:59.977Z,1.50
2018-09-17T16:06:28.666Z,1.70
2018-09-17T16:08:57.418Z,1.57
2018-09-17T16:11:26.114Z,1.77
2018-09-17T16:13:54.896Z,1.67
2018-09-17T16:16:23.597Z,1.57
2018-09-17T16:18:52.342Z,1.70
2018-09-17T16:21:21.078Z,1.70
2018-09-17T16:23:49.816Z,1.70
2018-09-17T16:26:18.494Z,1.60
2018-09-17T16:28:47.222Z,1.77
2018-09-17T16:31:15.898Z,1.72
2018-09-17T16:33:44.626Z,1.80
2018-09-17T16:36:13.313Z,1.90
2018-09-17T16:38:42.041Z,1.62
2018-09-17T16:41:10.750Z,2.20
2018-09-17T16:43:39.556Z,1.87
2018-09-17T16:46:08.254Z,1.90
2018-09-17T16:48:36.982Z,2.00
2018-09-17T16:51:05.801Z,1.80
2018-09-17T16:53:34.646Z,1.80
2018-09-17T16:56:03.326Z,1.80
2018-09-17T16:58:32.038Z,1.67
2018-09-17T17:01:00.809Z,1.70
2018-09-17T17:03:29.595Z,1.65
2018-09-17T17:05:58.423Z,1.60
2018-09-17T17:08:27.187Z,1.30
2018-09-17T17:10:55.979Z,1.60
2018-09-17T17:13:24.730Z,1.60
2018-09-17T17:15:53.503Z,1.60
2018-09-17T17:18:22.582Z,1.50
2018-09-17T17:20:51.339Z,1.55
2018-09-17T17:23:20.110Z,1.55
2018-09-17T17:25:48.890Z,1.60
2018-09-17T17:28:18.130Z,1.70
2018-09-17T17:30:46.967Z,1.70
2018-09-17T17:33:15.959Z,1.62
2018-09-17T17:35:45.519Z,1.67
2018-09-17T17:38:14.353Z,1.82
2018-09-17T17:40:43.296Z,1.70
2018-09-17T17:43:12.022Z,1.92
2018-09-17T17:45:40.774Z,1.90
2018-09-17T17:48:09.553Z,2.17
2018-09-17T17:50:38.333Z,2.37
2018-09-17T17:53:07.035Z,3.03
2018-09-17T17:55:35.743Z,3.60
2018-09-17T17:58:04.593Z,3.00
2018-09-17T18:00:33.424Z,2.50
2018-09-17T18:03:02.178Z,2.58
2018-09-17T18:05:30.897Z,2.40
2018-09-17T18:07:59.681Z,2.40
2018-09-17T18:10:28.466Z,2.30
2018-09-17T18:12:57.301Z,2.20
2018-09-17T18:15:26.099Z,2.12
2018-09-17T18:17:54.867Z,2.15
2018-09-17T18:20:23.625Z,2.37
2018-09-17T18:22:52.379Z,2.20
2018-09-17T18:25:21.116Z,2.17
2018-09-17T18:27:49.927Z,1.90
2018-09-17T18:30:18.709Z,1.80
2018-09-17T18:32:47.601Z,1.50
2018-09-17T18:35:16.399Z,1.70
2018-09-17T18:37:45.141Z,1.60
2018-09-17T18:40:13.854Z,1.70
2018-09-17T18:42:42.718Z,1.40
2018-09-17T18:45:11.474Z,1.57
2018-09-17T18:47:40.258Z,1.40
2018-09-17T18:50:08.994Z,1.40
2018-09-17T18:52:37.771Z,1.30
2018-09-17T18:55:06.605Z,1.22
2018-09-17T18:57:35.448Z,1.30
2018-09-17T19:00:04.405Z,1.30
2018-09-17T19:02:33.202Z,1.40
2018-09-17T19:05:02.006Z,1.20
2018-09-17T19:07:30.798Z,1.30
2018-09-17T19:09:59.686Z,1.40
2018-09-17T19:12:28.636Z,1.40
2018-09-17T19:15:02.611Z,1.50
2018-09-17T19:17:36.514Z,1.27
2018-09-17T19:20:05.593Z,1.32
2018-09-17T19:22:39.714Z,1.40
2018-09-17T19:25:08.594Z,1.30
2018-09-17T19:27:42.499Z,1.30
2018-09-17T19:30:11.339Z,1.30
2018-09-17T19:32:40.070Z,1.33
2018-09-17T19:35:08.893Z,1.20
2018-09-17T19:37:42.814Z,1.20
2018-09-17T19:40:18.896Z,1.30
2018-09-17T19:42:48.610Z,1.37
2018-09-17T19:45:22.794Z,1.27
2018-09-17T19:47:52.404Z,1.17
2018-09-17T19:50:26.436Z,1.10
2018-09-17T19:52:55.208Z,1.20
2018-09-17T19:55:23.986Z,1.20
2018-09-17T19:57:57.988Z,1.20
2018-09-17T20:00:26.881Z,1.15
2018-09-17T20:02:55.590Z,1.40
2018-09-17T20:05:29.666Z,1.30
2018-09-17T20:07:58.453Z,1.25
2018-09-17T20:10:27.262Z,1.30
2018-09-17T20:12:56.003Z,1.20
2018-09-17T20:15:24.933Z,1.20
2018-09-17T20:17:53.739Z,1.20
2018-09-17T20:20:22.671Z,1.10
2018-09-17T20:22:51.548Z,1.20
2018-09-17T20:25:20.454Z,1.37
2018-09-17T20:27:49.244Z,1.20
2018-09-17T20:30:18.109Z,1.10
2018-09-17T20:32:46.951Z,1.10
2018-09-17T20:35:15.791Z,1.10
2018-09-17T20:37:44.566Z,1.10
2018-09-17T20:40:13.314Z,1.20
2018-09-17T20:42:42.038Z,1.20
2018-09-17T20:45:10.785Z,1.22
2018-09-17T20:47:39.668Z,1.32
2018-09-17T20:50:08.498Z,1.20
2018-09-17T20:52:37.290Z,1.30
2018-09-17T20:55:06.108Z,1.10
2018-09-17T20:57:34.874Z,1.30
2018-09-17T21:00:03.766Z,1.30
2018-09-17T21:02:32.546Z,1.30
2018-09-17T21:05:01.231Z,1.30
2018-09-17T21:07:29.966Z,1.30
2018-09-17T21:09:58.684Z,1.40
2018-09-17T21:12:27.488Z,1.40
2018-09-17T21:14:56.162Z,1.30
2018-09-17T21:17:24.890Z,1.30
2018-09-17T21:19:53.627Z,1.40
2018-09-17T21:22:22.366Z,1.27
2018-09-17T21:24:51.268Z,1.40
2018-09-17T21:27:19.985Z,1.37
2018-09-17T21:29:48.698Z,1.20
2018-09-17T21:32:17.454Z,1.27
2018-09-17T21:34:46.160Z,1.30
2018-09-17T21:37:15.037Z,1.32
2018-09-17T21:39:43.703Z,1.30
2018-09-17T21:42:12.425Z,1.33
2018-09-17T21:44:41.113Z,1.30
2018-09-17T21:47:09.820Z,1.45
2018-09-17T21:49:38.517Z,1.33
2018-09-17T21:52:07.326Z,1.40
2018-09-17T21:54:36.066Z,1.30
2018-09-17T21:57:04.821Z,1.50
2018-09-17T21:59:33.613Z,1.50
2018-09-17T22:02:02.341Z,1.30
2018-09-17T22:04:31.266Z,1.30
2018-09-17T22:07:00.050Z,1.30
2018-09-17T22:09:28.802Z,1.30
2018-09-17T22:11:58.153Z,1.40
2018-09-17T22:14:26.893Z,1.50
2018-09-17T22:16:55.597Z,1.30
2018-09-17T22:19:24.317Z,1.60
2018-09-17T22:21:53.006Z,1.30
2018-09-17T22:24:21.742Z,1.40
2018-09-17T22:26:50.460Z,1.32
2018-09-17T22:29:19.157Z,1.40
2018-09-17T22:31:47.854Z,1.40
2018-09-17T22:34:16.567Z,1.30
2018-09-17T22:36:45.258Z,1.47
2018-09-17T22:39:13.986Z,1.32
2018-09-17T22:41:42.685Z,1.35
2018-09-17T22:44:11.426Z,1.43
2018-09-17T22:46:40.102Z,1.40
2018-09-17T22:49:09.001Z,1.42
2018-09-17T22:51:37.798Z,1.40
2018-09-17T22:54:06.550Z,1.50
2018-09-17T22:56:35.257Z,1.40
2018-09-17T22:59:04.046Z,1.45
2018-09-17T23:01:32.853Z,1.55
2018-09-17T23:04:01.574Z,1.52
2018-09-17T23:06:30.336Z,1.35
2018-09-17T23:08:59.065Z,1.60
2018-09-17T23:11:27.851Z,1.50
2018-09-17T23:13:56.602Z,1.47
2018-09-17T23:16:25.333Z,1.60
2018-09-17T23:18:54.057Z,1.50
2018-09-17T23:21:22.777Z,1.50
2018-09-17T23:23:51.458Z,1.42
2018-09-17T23:26:20.165Z,1.45
2018-09-17T23:28:48.865Z,1.63
2018-09-17T23:31:17.577Z,1.50
2018-09-17T23:33:46.267Z,1.50
2018-09-17T23:36:14.981Z,1.67
2018-09-17T23:38:43.658Z,1.52
2018-09-17T23:41:12.378Z,1.60
2018-09-17T23:43:41.190Z,1.40
2018-09-17T23:46:09.944Z,1.52
2018-09-17T23:48:38.666Z,1.50
2018-09-17T23:51:07.462Z,1.67
2018-09-17T23:53:36.181Z,1.50
2018-09-17T23:56:04.960Z,1.60
2018-09-17T23:58:33.704Z,1.40
